sensor_id;sensor_type;location;lat;lon;timestamp;P1;durP1;ratioP1;P2;durP2;ratioP2
19111;SDS011;9688;51.906;8.376;2024-01-06T00:02:24;9.83;;;6.77;;
19111;SDS011;9688;51.906;8.376;2024-01-06T00:05:10;10.30;;;7.20;;
19111;SDS011;9688;51.906;8.376;2024-01-06T00:07:57;12.10;;;6.80;;
19111;SDS011;9688;51.906;8.376;2024-01-06T00:10:43;11.83;;;6.30;;
19111;SDS011;9688;51.906;8.376;2024-01-06T00:13:29;10.43;;;6.37;;
19111;SDS011;9688;51.906;8.376;2024-01-06T00:16:16;13.87;;;6.27;;
19111;SDS011;9688;51.906;8.376;2024-01-06T00:19:03;8.83;;;5.63;;
19111;SDS011;9688;51.906;8.376;2024-01-06T00:21:48;9.37;;;6.17;;
19111;SDS011;9688;51.906;8.376;2024-01-06T00:24:35;9.00;;;6.30;;
19111;SDS011;9688;51.906;8.376;2024-01-06T00:27:21;8.17;;;5.70;;
19111;SDS011;9688;51.906;8.376;2024-01-06T00:30:07;12.10;;;6.33;;
19111;SDS011;9688;51.906;8.376;2024-01-06T00:32:53;14.43;;;5.77;;
19111;SDS011;9688;51.906;8.376;2024-01-06T00:35:39;9.33;;;5.83;;
19111;SDS011;9688;51.906;8.376;2024-01-06T00:38:25;8.37;;;5.93;;
19111;SDS011;9688;51.906;8.376;2024-01-06T00:41:13;8.40;;;6.10;;
19111;SDS011;9688;51.906;8.376;2024-01-06T00:43:59;9.67;;;6.27;;
19111;SDS011;9688;51.906;8.376;2024-01-06T00:46:45;8.90;;;6.23;;
19111;SDS011;9688;51.906;8.376;2024-01-06T00:49:30;8.23;;;6.00;;
19111;SDS011;9688;51.906;8.376;2024-01-06T00:52:16;8.07;;;5.67;;
19111;SDS011;9688;51.906;8.376;2024-01-06T00:55:02;8.23;;;5.93;;
19111;SDS011;9688;51.906;8.376;2024-01-06T00:57:50;8.97;;;5.80;;
19111;SDS011;9688;51.906;8.376;2024-01-06T01:00:36;10.63;;;6.43;;
19111;SDS011;9688;51.906;8.376;2024-01-06T01:03:21;9.57;;;6.43;;
19111;SDS011;9688;51.906;8.376;2024-01-06T01:06:07;11.70;;;6.10;;
19111;SDS011;9688;51.906;8.376;2024-01-06T01:08:54;9.47;;;6.40;;
19111;SDS011;9688;51.906;8.376;2024-01-06T01:11:39;8.70;;;6.00;;
19111;SDS011;9688;51.906;8.376;2024-01-06T01:14:26;9.60;;;5.63;;
19111;SDS011;9688;51.906;8.376;2024-01-06T01:17:12;8.67;;;6.60;;
19111;SDS011;9688;51.906;8.376;2024-01-06T01:19:58;8.07;;;5.80;;
19111;SDS011;9688;51.906;8.376;2024-01-06T01:22:44;9.20;;;6.10;;
19111;SDS011;9688;51.906;8.376;2024-01-06T01:25:30;10.50;;;6.70;;
19111;SDS011;9688;51.906;8.376;2024-01-06T01:28:16;9.93;;;6.47;;
19111;SDS011;9688;51.906;8.376;2024-01-06T01:31:03;12.57;;;7.47;;
19111;SDS011;9688;51.906;8.376;2024-01-06T01:33:49;10.10;;;6.57;;
19111;SDS011;9688;51.906;8.376;2024-01-06T01:36:34;9.63;;;6.40;;
19111;SDS011;9688;51.906;8.376;2024-01-06T01:39:20;10.40;;;6.80;;
19111;SDS011;9688;51.906;8.376;2024-01-06T01:42:06;10.63;;;6.63;;
19111;SDS011;9688;51.906;8.376;2024-01-06T01:44:52;11.27;;;6.63;;
19111;SDS011;9688;51.906;8.376;2024-01-06T01:47:39;12.10;;;6.87;;
19111;SDS011;9688;51.906;8.376;2024-01-06T01:50:25;13.83;;;8.10;;
19111;SDS011;9688;51.906;8.376;2024-01-06T01:53:11;11.37;;;7.13;;
19111;SDS011;9688;51.906;8.376;2024-01-06T01:55:58;12.93;;;7.10;;
19111;SDS011;9688;51.906;8.376;2024-01-06T01:58:45;10.97;;;7.53;;
19111;SDS011;9688;51.906;8.376;2024-01-06T02:01:31;13.20;;;7.67;;
19111;SDS011;9688;51.906;8.376;2024-01-06T02:04:19;12.10;;;7.47;;
19111;SDS011;9688;51.906;8.376;2024-01-06T02:07:05;13.43;;;8.00;;
19111;SDS011;9688;51.906;8.376;2024-01-06T02:09:51;14.63;;;8.10;;
19111;SDS011;9688;51.906;8.376;2024-01-06T02:12:37;14.57;;;8.20;;
19111;SDS011;9688;51.906;8.376;2024-01-06T02:15:23;15.63;;;7.47;;
19111;SDS011;9688;51.906;8.376;2024-01-06T02:18:09;13.97;;;7.80;;
19111;SDS011;9688;51.906;8.376;2024-01-06T02:20:58;12.80;;;8.30;;
19111;SDS011;9688;51.906;8.376;2024-01-06T02:23:46;14.63;;;8.40;;
19111;SDS011;9688;51.906;8.376;2024-01-06T02:26:32;17.47;;;8.87;;
19111;SDS011;9688;51.906;8.376;2024-01-06T02:29:18;14.40;;;8.33;;
19111;SDS011;9688;51.906;8.376;2024-01-06T02:32:04;17.27;;;9.20;;
19111;SDS011;9688;51.906;8.376;2024-01-06T02:34:50;15.43;;;8.63;;
19111;SDS011;9688;51.906;8.376;2024-01-06T02:37:36;19.27;;;9.23;;
19111;SDS011;9688;51.906;8.376;2024-01-06T02:40:25;24.30;;;9.83;;
19111;SDS011;9688;51.906;8.376;2024-01-06T02:43:13;15.43;;;8.90;;
19111;SDS011;9688;51.906;8.376;2024-01-06T02:45:59;17.87;;;9.23;;
19111;SDS011;9688;51.906;8.376;2024-01-06T02:48:44;16.80;;;9.30;;
19111;SDS011;9688;51.906;8.376;2024-01-06T02:51:30;15.83;;;9.20;;
19111;SDS011;9688;51.906;8.376;2024-01-06T02:54:16;19.37;;;10.10;;
19111;SDS011;9688;51.906;8.376;2024-01-06T02:57:03;16.37;;;9.17;;
19111;SDS011;9688;51.906;8.376;2024-01-06T02:59:49;20.70;;;10.73;;
19111;SDS011;9688;51.906;8.376;2024-01-06T03:02:34;20.90;;;10.30;;
19111;SDS011;9688;51.906;8.376;2024-01-06T03:05:21;19.53;;;9.90;;
19111;SDS011;9688;51.906;8.376;2024-01-06T03:08:07;20.40;;;11.07;;
19111;SDS011;9688;51.906;8.376;2024-01-06T03:10:53;20.73;;;10.60;;
19111;SDS011;9688;51.906;8.376;2024-01-06T03:13:40;17.10;;;10.13;;
19111;SDS011;9688;51.906;8.376;2024-01-06T03:16:26;21.03;;;10.93;;
19111;SDS011;9688;51.906;8.376;2024-01-06T03:19:12;20.27;;;10.57;;
19111;SDS011;9688;51.906;8.376;2024-01-06T03:21:58;20.20;;;10.33;;
19111;SDS011;9688;51.906;8.376;2024-01-06T03:24:44;19.00;;;10.27;;
19111;SDS011;9688;51.906;8.376;2024-01-06T03:27:30;20.17;;;10.07;;
19111;SDS011;9688;51.906;8.376;2024-01-06T03:30:17;20.87;;;10.73;;
19111;SDS011;9688;51.906;8.376;2024-01-06T03:33:03;19.53;;;10.23;;
19111;SDS011;9688;51.906;8.376;2024-01-06T03:35:49;18.10;;;10.03;;
19111;SDS011;9688;51.906;8.376;2024-01-06T03:38:35;22.27;;;11.17;;
19111;SDS011;9688;51.906;8.376;2024-01-06T03:41:21;20.37;;;10.60;;
19111;SDS011;9688;51.906;8.376;2024-01-06T03:44:07;19.73;;;10.00;;
19111;SDS011;9688;51.906;8.376;2024-01-06T03:46:54;17.77;;;10.43;;
19111;SDS011;9688;51.906;8.376;2024-01-06T03:49:40;20.57;;;10.33;;
19111;SDS011;9688;51.906;8.376;2024-01-06T03:52:26;17.93;;;10.63;;
19111;SDS011;9688;51.906;8.376;2024-01-06T03:55:12;18.13;;;10.33;;
19111;SDS011;9688;51.906;8.376;2024-01-06T03:57:58;18.60;;;10.63;;
19111;SDS011;9688;51.906;8.376;2024-01-06T04:00:43;19.50;;;10.77;;
19111;SDS011;9688;51.906;8.376;2024-01-06T04:03:31;19.77;;;11.13;;
19111;SDS011;9688;51.906;8.376;2024-01-06T04:06:16;22.97;;;11.10;;
19111;SDS011;9688;51.906;8.376;2024-01-06T04:09:02;19.93;;;10.93;;
19111;SDS011;9688;51.906;8.376;2024-01-06T04:11:49;17.70;;;9.80;;
19111;SDS011;9688;51.906;8.376;2024-01-06T04:14:35;17.43;;;9.73;;
19111;SDS011;9688;51.906;8.376;2024-01-06T04:17:21;20.50;;;10.23;;
19111;SDS011;9688;51.906;8.376;2024-01-06T04:20:09;21.20;;;11.27;;
19111;SDS011;9688;51.906;8.376;2024-01-06T04:22:56;17.37;;;9.93;;
19111;SDS011;9688;51.906;8.376;2024-01-06T04:25:42;22.63;;;11.20;;
19111;SDS011;9688;51.906;8.376;2024-01-06T04:28:28;19.53;;;10.90;;
19111;SDS011;9688;51.906;8.376;2024-01-06T04:31:13;21.10;;;11.10;;
19111;SDS011;9688;51.906;8.376;2024-01-06T04:33:59;18.87;;;9.27;;
19111;SDS011;9688;51.906;8.376;2024-01-06T04:36:46;18.40;;;9.83;;
19111;SDS011;9688;51.906;8.376;2024-01-06T04:39:32;21.40;;;11.50;;
19111;SDS011;9688;51.906;8.376;2024-01-06T04:42:18;19.53;;;10.53;;
19111;SDS011;9688;51.906;8.376;2024-01-06T04:45:07;17.40;;;10.03;;
19111;SDS011;9688;51.906;8.376;2024-01-06T04:47:52;17.23;;;9.37;;
19111;SDS011;9688;51.906;8.376;2024-01-06T04:50:39;16.87;;;10.17;;
19111;SDS011;9688;51.906;8.376;2024-01-06T04:53:26;17.07;;;9.50;;
19111;SDS011;9688;51.906;8.376;2024-01-06T04:56:11;15.60;;;8.83;;
19111;SDS011;9688;51.906;8.376;2024-01-06T04:58:58;16.83;;;8.97;;
19111;SDS011;9688;51.906;8.376;2024-01-06T05:01:43;16.70;;;8.43;;
19111;SDS011;9688;51.906;8.376;2024-01-06T05:04:29;17.70;;;9.10;;
19111;SDS011;9688;51.906;8.376;2024-01-06T05:07:17;17.50;;;9.07;;
19111;SDS011;9688;51.906;8.376;2024-01-06T05:10:05;16.63;;;9.43;;
19111;SDS011;9688;51.906;8.376;2024-01-06T05:12:51;18.33;;;9.57;;
19111;SDS011;9688;51.906;8.376;2024-01-06T05:15:37;17.87;;;9.33;;
19111;SDS011;9688;51.906;8.376;2024-01-06T05:18:23;16.37;;;8.50;;
19111;SDS011;9688;51.906;8.376;2024-01-06T05:21:09;18.90;;;8.90;;
19111;SDS011;9688;51.906;8.376;2024-01-06T05:23:55;18.40;;;9.40;;
19111;SDS011;9688;51.906;8.376;2024-01-06T05:26:42;17.73;;;8.63;;
19111;SDS011;9688;51.906;8.376;2024-01-06T05:29:28;18.07;;;9.47;;
19111;SDS011;9688;51.906;8.376;2024-01-06T05:32:14;18.77;;;9.17;;
19111;SDS011;9688;51.906;8.376;2024-01-06T05:35:01;16.63;;;8.63;;
19111;SDS011;9688;51.906;8.376;2024-01-06T05:37:46;19.53;;;9.93;;
19111;SDS011;9688;51.906;8.376;2024-01-06T05:40:32;16.97;;;8.80;;
19111;SDS011;9688;51.906;8.376;2024-01-06T05:43:20;17.50;;;8.87;;
19111;SDS011;9688;51.906;8.376;2024-01-06T05:46:05;18.73;;;9.30;;
19111;SDS011;9688;51.906;8.376;2024-01-06T05:48:52;15.70;;;8.53;;
19111;SDS011;9688;51.906;8.376;2024-01-06T05:51:43;19.83;;;9.63;;
19111;SDS011;9688;51.906;8.376;2024-01-06T05:54:30;15.73;;;8.17;;
19111;SDS011;9688;51.906;8.376;2024-01-06T05:57:16;16.17;;;8.83;;
19111;SDS011;9688;51.906;8.376;2024-01-06T06:00:04;13.93;;;7.77;;
19111;SDS011;9688;51.906;8.376;2024-01-06T06:02:53;12.17;;;7.13;;
19111;SDS011;9688;51.906;8.376;2024-01-06T06:05:39;12.40;;;6.53;;
19111;SDS011;9688;51.906;8.376;2024-01-06T06:08:25;13.93;;;7.23;;
19111;SDS011;9688;51.906;8.376;2024-01-06T06:11:11;11.00;;;6.70;;
19111;SDS011;9688;51.906;8.376;2024-01-06T06:13:57;11.93;;;6.20;;
19111;SDS011;9688;51.906;8.376;2024-01-06T06:16:44;10.30;;;6.13;;
19111;SDS011;9688;51.906;8.376;2024-01-06T06:19:32;10.30;;;5.73;;
19111;SDS011;9688;51.906;8.376;2024-01-06T06:22:18;11.47;;;6.33;;
19111;SDS011;9688;51.906;8.376;2024-01-06T06:25:04;12.20;;;6.67;;
19111;SDS011;9688;51.906;8.376;2024-01-06T06:27:51;16.67;;;7.17;;
19111;SDS011;9688;51.906;8.376;2024-01-06T06:30:37;10.10;;;5.57;;
19111;SDS011;9688;51.906;8.376;2024-01-06T06:33:24;10.77;;;6.57;;
19111;SDS011;9688;51.906;8.376;2024-01-06T06:36:10;10.23;;;6.20;;
19111;SDS011;9688;51.906;8.376;2024-01-06T06:38:56;9.40;;;5.63;;
19111;SDS011;9688;51.906;8.376;2024-01-06T06:41:43;10.77;;;6.23;;
19111;SDS011;9688;51.906;8.376;2024-01-06T06:44:29;11.00;;;6.73;;
19111;SDS011;9688;51.906;8.376;2024-01-06T06:47:15;10.97;;;6.60;;
19111;SDS011;9688;51.906;8.376;2024-01-06T06:50:02;13.50;;;6.93;;
19111;SDS011;9688;51.906;8.376;2024-01-06T06:52:49;11.43;;;6.70;;
19111;SDS011;9688;51.906;8.376;2024-01-06T06:55:35;9.00;;;5.90;;
19111;SDS011;9688;51.906;8.376;2024-01-06T06:58:21;11.23;;;6.30;;
19111;SDS011;9688;51.906;8.376;2024-01-06T07:01:08;12.37;;;7.07;;
19111;SDS011;9688;51.906;8.376;2024-01-06T07:03:55;10.30;;;6.40;;
19111;SDS011;9688;51.906;8.376;2024-01-06T07:06:43;11.83;;;6.47;;
19111;SDS011;9688;51.906;8.376;2024-01-06T07:09:28;11.47;;;6.23;;
19111;SDS011;9688;51.906;8.376;2024-01-06T07:12:14;10.53;;;6.37;;
19111;SDS011;9688;51.906;8.376;2024-01-06T07:15:00;10.20;;;5.83;;
19111;SDS011;9688;51.906;8.376;2024-01-06T07:17:47;12.73;;;6.10;;
19111;SDS011;9688;51.906;8.376;2024-01-06T07:20:33;13.13;;;5.90;;
19111;SDS011;9688;51.906;8.376;2024-01-06T07:23:21;11.67;;;6.13;;
19111;SDS011;9688;51.906;8.376;2024-01-06T07:26:06;8.53;;;5.30;;
19111;SDS011;9688;51.906;8.376;2024-01-06T07:28:52;11.10;;;6.33;;
19111;SDS011;9688;51.906;8.376;2024-01-06T07:31:38;11.63;;;5.77;;
19111;SDS011;9688;51.906;8.376;2024-01-06T07:34:24;10.10;;;6.03;;
19111;SDS011;9688;51.906;8.376;2024-01-06T07:37:10;9.87;;;5.53;;
19111;SDS011;9688;51.906;8.376;2024-01-06T07:39:58;10.40;;;5.93;;
19111;SDS011;9688;51.906;8.376;2024-01-06T07:42:44;10.40;;;5.17;;
19111;SDS011;9688;51.906;8.376;2024-01-06T07:45:29;8.57;;;5.43;;
19111;SDS011;9688;51.906;8.376;2024-01-06T07:48:15;12.30;;;6.67;;
19111;SDS011;9688;51.906;8.376;2024-01-06T07:51:01;9.83;;;5.33;;
19111;SDS011;9688;51.906;8.376;2024-01-06T07:53:47;12.77;;;6.10;;
19111;SDS011;9688;51.906;8.376;2024-01-06T07:56:35;9.97;;;5.77;;
19111;SDS011;9688;51.906;8.376;2024-01-06T07:59:20;11.07;;;6.20;;
19111;SDS011;9688;51.906;8.376;2024-01-06T08:02:06;13.50;;;6.40;;
19111;SDS011;9688;51.906;8.376;2024-01-06T08:04:53;10.40;;;5.73;;
19111;SDS011;9688;51.906;8.376;2024-01-06T08:07:39;11.90;;;6.70;;
19111;SDS011;9688;51.906;8.376;2024-01-06T08:10:25;11.50;;;6.20;;
19111;SDS011;9688;51.906;8.376;2024-01-06T08:13:12;9.50;;;5.37;;
19111;SDS011;9688;51.906;8.376;2024-01-06T08:15:58;10.97;;;6.30;;
19111;SDS011;9688;51.906;8.376;2024-01-06T08:18:44;13.33;;;6.87;;
19111;SDS011;9688;51.906;8.376;2024-01-06T08:21:30;12.60;;;6.60;;
19111;SDS011;9688;51.906;8.376;2024-01-06T08:24:16;12.87;;;6.87;;
19111;SDS011;9688;51.906;8.376;2024-01-06T08:27:02;12.50;;;7.20;;
19111;SDS011;9688;51.906;8.376;2024-01-06T08:29:50;14.27;;;8.00;;
19111;SDS011;9688;51.906;8.376;2024-01-06T08:32:36;17.67;;;9.37;;
19111;SDS011;9688;51.906;8.376;2024-01-06T08:35:22;20.03;;;10.30;;
19111;SDS011;9688;51.906;8.376;2024-01-06T08:38:07;19.60;;;9.63;;
19111;SDS011;9688;51.906;8.376;2024-01-06T08:40:53;22.00;;;10.17;;
19111;SDS011;9688;51.906;8.376;2024-01-06T08:43:39;18.87;;;9.40;;
19111;SDS011;9688;51.906;8.376;2024-01-06T08:46:27;14.90;;;8.40;;
19111;SDS011;9688;51.906;8.376;2024-01-06T08:49:13;15.90;;;8.83;;
19111;SDS011;9688;51.906;8.376;2024-01-06T08:51:59;15.37;;;7.87;;
19111;SDS011;9688;51.906;8.376;2024-01-06T08:54:45;14.40;;;7.53;;
19111;SDS011;9688;51.906;8.376;2024-01-06T08:57:30;13.30;;;7.33;;
19111;SDS011;9688;51.906;8.376;2024-01-06T09:00:16;16.23;;;7.63;;
19111;SDS011;9688;51.906;8.376;2024-01-06T09:03:03;14.97;;;7.43;;
19111;SDS011;9688;51.906;8.376;2024-01-06T09:05:50;15.27;;;7.87;;
19111;SDS011;9688;51.906;8.376;2024-01-06T09:08:36;15.83;;;8.67;;
19111;SDS011;9688;51.906;8.376;2024-01-06T09:11:22;15.23;;;8.20;;
19111;SDS011;9688;51.906;8.376;2024-01-06T09:14:08;16.20;;;8.20;;
19111;SDS011;9688;51.906;8.376;2024-01-06T09:16:54;13.70;;;7.87;;
19111;SDS011;9688;51.906;8.376;2024-01-06T09:19:41;17.30;;;8.87;;
19111;SDS011;9688;51.906;8.376;2024-01-06T09:22:27;14.23;;;7.30;;
19111;SDS011;9688;51.906;8.376;2024-01-06T09:25:13;14.57;;;7.50;;
19111;SDS011;9688;51.906;8.376;2024-01-06T09:27:59;15.40;;;7.30;;
19111;SDS011;9688;51.906;8.376;2024-01-06T09:30:44;12.10;;;6.93;;
19111;SDS011;9688;51.906;8.376;2024-01-06T09:33:30;18.97;;;7.47;;
19111;SDS011;9688;51.906;8.376;2024-01-06T09:36:19;11.70;;;5.93;;
19111;SDS011;9688;51.906;8.376;2024-01-06T09:39:06;12.47;;;6.63;;
19111;SDS011;9688;51.906;8.376;2024-01-06T09:41:52;12.63;;;6.03;;
19111;SDS011;9688;51.906;8.376;2024-01-06T09:44:37;9.40;;;5.27;;
19111;SDS011;9688;51.906;8.376;2024-01-06T09:47:23;11.10;;;5.67;;
19111;SDS011;9688;51.906;8.376;2024-01-06T09:50:13;8.60;;;4.77;;
19111;SDS011;9688;51.906;8.376;2024-01-06T09:53:00;10.77;;;5.30;;
19111;SDS011;9688;51.906;8.376;2024-01-06T09:55:50;10.40;;;5.33;;
19111;SDS011;9688;51.906;8.376;2024-01-06T09:58:36;9.90;;;5.07;;
19111;SDS011;9688;51.906;8.376;2024-01-06T10:01:23;7.37;;;4.70;;
19111;SDS011;9688;51.906;8.376;2024-01-06T10:04:09;8.23;;;5.10;;
19111;SDS011;9688;51.906;8.376;2024-01-06T10:06:55;8.57;;;4.83;;
19111;SDS011;9688;51.906;8.376;2024-01-06T10:09:41;10.77;;;5.13;;
19111;SDS011;9688;51.906;8.376;2024-01-06T10:12:30;8.80;;;5.30;;
19111;SDS011;9688;51.906;8.376;2024-01-06T10:15:17;11.70;;;5.53;;
19111;SDS011;9688;51.906;8.376;2024-01-06T10:18:05;10.70;;;5.27;;
19111;SDS011;9688;51.906;8.376;2024-01-06T10:20:51;10.43;;;5.70;;
19111;SDS011;9688;51.906;8.376;2024-01-06T10:23:37;11.00;;;5.53;;
19111;SDS011;9688;51.906;8.376;2024-01-06T10:26:24;12.03;;;5.67;;
19111;SDS011;9688;51.906;8.376;2024-01-06T10:29:10;9.47;;;5.37;;
19111;SDS011;9688;51.906;8.376;2024-01-06T10:31:55;11.10;;;6.50;;
19111;SDS011;9688;51.906;8.376;2024-01-06T10:34:42;11.37;;;6.37;;
19111;SDS011;9688;51.906;8.376;2024-01-06T10:37:29;10.77;;;6.43;;
19111;SDS011;9688;51.906;8.376;2024-01-06T10:40:17;16.73;;;7.33;;
19111;SDS011;9688;51.906;8.376;2024-01-06T10:43:05;13.10;;;7.03;;
19111;SDS011;9688;51.906;8.376;2024-01-06T10:45:52;14.60;;;7.73;;
19111;SDS011;9688;51.906;8.376;2024-01-06T10:48:41;14.33;;;6.87;;
19111;SDS011;9688;51.906;8.376;2024-01-06T10:51:31;12.40;;;6.50;;
19111;SDS011;9688;51.906;8.376;2024-01-06T10:54:18;15.10;;;7.00;;
19111;SDS011;9688;51.906;8.376;2024-01-06T10:57:05;15.70;;;6.77;;
19111;SDS011;9688;51.906;8.376;2024-01-06T10:59:53;15.27;;;7.00;;
19111;SDS011;9688;51.906;8.376;2024-01-06T11:02:39;11.37;;;6.00;;
19111;SDS011;9688;51.906;8.376;2024-01-06T11:05:26;12.17;;;6.43;;
19111;SDS011;9688;51.906;8.376;2024-01-06T11:08:13;10.80;;;6.10;;
19111;SDS011;9688;51.906;8.376;2024-01-06T11:11:02;8.90;;;5.00;;
19111;SDS011;9688;51.906;8.376;2024-01-06T11:13:49;7.73;;;4.87;;
19111;SDS011;9688;51.906;8.376;2024-01-06T11:16:37;5.93;;;3.80;;
19111;SDS011;9688;51.906;8.376;2024-01-06T11:22:27;5.53;;;3.93;;
19111;SDS011;9688;51.906;8.376;2024-01-06T11:25:15;8.63;;;4.53;;
19111;SDS011;9688;51.906;8.376;2024-01-06T11:28:02;5.80;;;3.30;;
19111;SDS011;9688;51.906;8.376;2024-01-06T11:31:05;5.43;;;3.60;;
19111;SDS011;9688;51.906;8.376;2024-01-06T11:33:58;4.73;;;3.53;;
19111;SDS011;9688;51.906;8.376;2024-01-06T11:36:58;5.20;;;3.30;;
19111;SDS011;9688;51.906;8.376;2024-01-06T11:39:45;4.07;;;3.10;;
19111;SDS011;9688;51.906;8.376;2024-01-06T11:42:31;4.43;;;3.30;;
19111;SDS011;9688;51.906;8.376;2024-01-06T11:45:18;3.87;;;2.93;;
19111;SDS011;9688;51.906;8.376;2024-01-06T11:48:04;4.87;;;2.83;;
19111;SDS011;9688;51.906;8.376;2024-01-06T11:50:52;9.07;;;5.43;;
19111;SDS011;9688;51.906;8.376;2024-01-06T11:53:38;5.20;;;3.60;;
19111;SDS011;9688;51.906;8.376;2024-01-06T11:56:25;3.53;;;2.83;;
19111;SDS011;9688;51.906;8.376;2024-01-06T11:59:10;3.87;;;2.80;;
19111;SDS011;9688;51.906;8.376;2024-01-06T12:01:56;3.93;;;3.13;;
19111;SDS011;9688;51.906;8.376;2024-01-06T12:04:41;3.73;;;3.13;;
19111;SDS011;9688;51.906;8.376;2024-01-06T12:11:25;3.27;;;3.00;;
19111;SDS011;9688;51.906;8.376;2024-01-06T12:14:11;5.63;;;3.37;;
19111;SDS011;9688;51.906;8.376;2024-01-06T12:16:58;3.30;;;3.00;;
19111;SDS011;9688;51.906;8.376;2024-01-06T12:19:47;4.57;;;2.90;;
19111;SDS011;9688;51.906;8.376;2024-01-06T12:22:34;4.43;;;3.57;;
19111;SDS011;9688;51.906;8.376;2024-01-06T12:25:23;4.10;;;3.50;;
19111;SDS011;9688;51.906;8.376;2024-01-06T12:28:14;6.63;;;3.37;;
19111;SDS011;9688;51.906;8.376;2024-01-06T12:31:02;5.60;;;3.40;;
19111;SDS011;9688;51.906;8.376;2024-01-06T12:33:49;3.67;;;3.37;;
19111;SDS011;9688;51.906;8.376;2024-01-06T12:36:36;3.50;;;2.90;;
19111;SDS011;9688;51.906;8.376;2024-01-06T12:39:26;4.40;;;3.27;;
19111;SDS011;9688;51.906;8.376;2024-01-06T12:42:14;5.13;;;3.37;;
19111;SDS011;9688;51.906;8.376;2024-01-06T12:45:12;3.37;;;2.93;;
19111;SDS011;9688;51.906;8.376;2024-01-06T12:48:07;5.00;;;3.30;;
19111;SDS011;9688;51.906;8.376;2024-01-06T12:50:53;4.83;;;3.40;;
19111;SDS011;9688;51.906;8.376;2024-01-06T12:53:40;4.80;;;3.07;;
19111;SDS011;9688;51.906;8.376;2024-01-06T12:56:26;4.20;;;3.07;;
19111;SDS011;9688;51.906;8.376;2024-01-06T12:59:12;3.67;;;3.30;;
19111;SDS011;9688;51.906;8.376;2024-01-06T13:01:59;5.10;;;3.80;;
19111;SDS011;9688;51.906;8.376;2024-01-06T13:04:45;5.20;;;4.10;;
19111;SDS011;9688;51.906;8.376;2024-01-06T13:07:33;6.80;;;3.60;;
19111;SDS011;9688;51.906;8.376;2024-01-06T13:10:24;4.77;;;3.47;;
19111;SDS011;9688;51.906;8.376;2024-01-06T13:13:12;4.70;;;3.47;;
19111;SDS011;9688;51.906;8.376;2024-01-06T13:15:59;5.63;;;3.57;;
19111;SDS011;9688;51.906;8.376;2024-01-06T13:18:51;5.60;;;4.20;;
19111;SDS011;9688;51.906;8.376;2024-01-06T13:21:37;5.00;;;3.70;;
19111;SDS011;9688;51.906;8.376;2024-01-06T13:24:24;5.13;;;3.50;;
19111;SDS011;9688;51.906;8.376;2024-01-06T13:27:10;6.43;;;3.80;;
19111;SDS011;9688;51.906;8.376;2024-01-06T13:30:01;6.20;;;3.97;;
19111;SDS011;9688;51.906;8.376;2024-01-06T13:32:49;7.60;;;4.40;;
19111;SDS011;9688;51.906;8.376;2024-01-06T13:38:51;6.37;;;4.10;;
19111;SDS011;9688;51.906;8.376;2024-01-06T13:41:37;4.83;;;3.73;;
19111;SDS011;9688;51.906;8.376;2024-01-06T13:44:23;5.47;;;3.90;;
19111;SDS011;9688;51.906;8.376;2024-01-06T13:47:09;6.23;;;3.60;;
19111;SDS011;9688;51.906;8.376;2024-01-06T13:49:55;4.50;;;3.60;;
19111;SDS011;9688;51.906;8.376;2024-01-06T13:52:43;5.97;;;4.13;;
19111;SDS011;9688;51.906;8.376;2024-01-06T13:55:30;6.73;;;4.43;;
19111;SDS011;9688;51.906;8.376;2024-01-06T13:58:15;5.80;;;4.47;;
19111;SDS011;9688;51.906;8.376;2024-01-06T14:01:01;5.30;;;3.90;;
19111;SDS011;9688;51.906;8.376;2024-01-06T14:03:47;6.77;;;4.37;;
19111;SDS011;9688;51.906;8.376;2024-01-06T14:06:33;5.77;;;4.40;;
19111;SDS011;9688;51.906;8.376;2024-01-06T14:09:20;4.60;;;3.93;;
19111;SDS011;9688;51.906;8.376;2024-01-06T14:12:06;6.70;;;5.03;;
19111;SDS011;9688;51.906;8.376;2024-01-06T14:14:52;6.87;;;4.73;;
19111;SDS011;9688;51.906;8.376;2024-01-06T14:17:38;8.37;;;5.63;;
19111;SDS011;9688;51.906;8.376;2024-01-06T14:20:25;9.83;;;5.27;;
19111;SDS011;9688;51.906;8.376;2024-01-06T14:23:12;11.13;;;6.10;;
19111;SDS011;9688;51.906;8.376;2024-01-06T14:25:59;10.30;;;6.33;;
19111;SDS011;9688;51.906;8.376;2024-01-06T14:28:46;9.67;;;5.57;;
19111;SDS011;9688;51.906;8.376;2024-01-06T14:31:32;11.37;;;6.03;;
19111;SDS011;9688;51.906;8.376;2024-01-06T14:34:20;9.37;;;6.57;;
19111;SDS011;9688;51.906;8.376;2024-01-06T14:37:07;10.17;;;6.37;;
19111;SDS011;9688;51.906;8.376;2024-01-06T14:39:53;9.50;;;6.00;;
19111;SDS011;9688;51.906;8.376;2024-01-06T14:42:41;10.00;;;5.63;;
19111;SDS011;9688;51.906;8.376;2024-01-06T14:45:26;11.17;;;6.30;;
19111;SDS011;9688;51.906;8.376;2024-01-06T14:48:12;8.37;;;5.93;;
19111;SDS011;9688;51.906;8.376;2024-01-06T14:50:58;10.63;;;6.10;;
19111;SDS011;9688;51.906;8.376;2024-01-06T14:53:46;10.50;;;5.90;;
19111;SDS011;9688;51.906;8.376;2024-01-06T14:56:32;11.40;;;6.53;;
19111;SDS011;9688;51.906;8.376;2024-01-06T14:59:19;10.77;;;6.27;;
19111;SDS011;9688;51.906;8.376;2024-01-06T15:02:05;10.77;;;6.90;;
19111;SDS011;9688;51.906;8.376;2024-01-06T15:04:53;10.60;;;6.80;;
19111;SDS011;9688;51.906;8.376;2024-01-06T15:07:40;10.43;;;6.70;;
19111;SDS011;9688;51.906;8.376;2024-01-06T15:10:26;10.83;;;6.53;;
19111;SDS011;9688;51.906;8.376;2024-01-06T15:13:11;13.33;;;7.40;;
19111;SDS011;9688;51.906;8.376;2024-01-06T15:15:59;11.83;;;6.70;;
19111;SDS011;9688;51.906;8.376;2024-01-06T15:18:45;10.57;;;6.57;;
19111;SDS011;9688;51.906;8.376;2024-01-06T15:21:34;12.20;;;6.40;;
19111;SDS011;9688;51.906;8.376;2024-01-06T15:24:21;12.33;;;7.17;;
19111;SDS011;9688;51.906;8.376;2024-01-06T15:27:07;12.57;;;7.40;;
19111;SDS011;9688;51.906;8.376;2024-01-06T15:29:53;11.97;;;6.70;;
19111;SDS011;9688;51.906;8.376;2024-01-06T15:32:41;8.47;;;5.70;;
19111;SDS011;9688;51.906;8.376;2024-01-06T15:35:27;7.10;;;5.03;;
19111;SDS011;9688;51.906;8.376;2024-01-06T15:38:13;8.00;;;5.17;;
19111;SDS011;9688;51.906;8.376;2024-01-06T15:40:59;8.87;;;4.97;;
19111;SDS011;9688;51.906;8.376;2024-01-06T15:43:45;6.37;;;4.90;;
19111;SDS011;9688;51.906;8.376;2024-01-06T15:46:31;6.83;;;4.60;;
19111;SDS011;9688;51.906;8.376;2024-01-06T15:49:18;5.80;;;4.60;;
19111;SDS011;9688;51.906;8.376;2024-01-06T15:52:04;8.07;;;5.30;;
19111;SDS011;9688;51.906;8.376;2024-01-06T15:54:51;9.90;;;5.60;;
19111;SDS011;9688;51.906;8.376;2024-01-06T15:57:38;9.03;;;5.63;;
19111;SDS011;9688;51.906;8.376;2024-01-06T16:00:24;7.97;;;5.80;;
19111;SDS011;9688;51.906;8.376;2024-01-06T16:03:10;9.10;;;6.00;;
19111;SDS011;9688;51.906;8.376;2024-01-06T16:05:57;11.67;;;6.43;;
19111;SDS011;9688;51.906;8.376;2024-01-06T16:08:44;8.97;;;6.60;;
19111;SDS011;9688;51.906;8.376;2024-01-06T16:11:30;9.70;;;6.83;;
19111;SDS011;9688;51.906;8.376;2024-01-06T16:14:15;8.40;;;6.20;;
19111;SDS011;9688;51.906;8.376;2024-01-06T16:17:01;7.57;;;5.87;;
19111;SDS011;9688;51.906;8.376;2024-01-06T16:19:48;7.77;;;5.87;;
19111;SDS011;9688;51.906;8.376;2024-01-06T16:22:35;9.87;;;6.33;;
19111;SDS011;9688;51.906;8.376;2024-01-06T16:25:20;11.70;;;6.83;;
19111;SDS011;9688;51.906;8.376;2024-01-06T16:28:06;11.27;;;6.97;;
19111;SDS011;9688;51.906;8.376;2024-01-06T16:30:55;10.97;;;7.63;;
19111;SDS011;9688;51.906;8.376;2024-01-06T16:33:41;11.97;;;7.40;;
19111;SDS011;9688;51.906;8.376;2024-01-06T16:36:27;10.47;;;7.23;;
19111;SDS011;9688;51.906;8.376;2024-01-06T16:39:15;10.20;;;7.07;;
19111;SDS011;9688;51.906;8.376;2024-01-06T16:42:01;16.87;;;7.20;;
19111;SDS011;9688;51.906;8.376;2024-01-06T16:44:47;12.07;;;7.47;;
19111;SDS011;9688;51.906;8.376;2024-01-06T16:47:33;11.27;;;7.00;;
19111;SDS011;9688;51.906;8.376;2024-01-06T16:50:18;10.57;;;6.73;;
19111;SDS011;9688;51.906;8.376;2024-01-06T16:53:05;11.90;;;6.80;;
19111;SDS011;9688;51.906;8.376;2024-01-06T16:55:52;10.90;;;6.37;;
19111;SDS011;9688;51.906;8.376;2024-01-06T16:58:38;31.13;;;9.43;;